createdAt,value
2018-03-21T00:00:58.037Z,4.13
2018-03-21T00:03:24.726Z,3.90
2018-03-21T00:05:51.425Z,3.83
2018-03-21T00:08:18.121Z,3.40
2018-03-21T00:10:44.759Z,3.70
2018-03-21T00:13:11.423Z,4.00
2018-03-21T00:15:38.067Z,3.93
2018-03-21T00:18:04.709Z,3.90
2018-03-21T00:20:31.372Z,3.60
2018-03-21T00:22:58.022Z,4.00
2018-03-21T00:25:24.687Z,3.70
2018-03-21T00:27:51.368Z,3.93
2018-03-21T00:30:18.020Z,3.77
2018-03-21T00:32:44.679Z,3.80
2018-03-21T00:35:11.322Z,3.90
2018-03-21T00:37:37.978Z,3.83
2018-03-21T00:40:04.625Z,3.50
2018-03-21T00:42:31.268Z,3.83
2018-03-21T00:44:57.927Z,4.10
2018-03-21T00:47:24.592Z,4.00
2018-03-21T00:49:51.263Z,4.10
2018-03-21T00:52:17.909Z,3.73
2018-03-21T00:54:44.556Z,4.17
2018-03-21T00:57:11.205Z,3.80
2018-03-21T00:59:37.947Z,3.33
2018-03-21T01:02:04.611Z,3.20
2018-03-21T01:04:31.251Z,3.17
2018-03-21T01:06:57.958Z,3.90
2018-03-21T01:09:24.644Z,3.70
2018-03-21T01:11:51.293Z,3.53
2018-03-21T01:14:17.953Z,3.20
2018-03-21T01:16:44.600Z,3.77
2018-03-21T01:19:11.244Z,3.70
2018-03-21T01:21:37.906Z,3.80
2018-03-21T01:24:04.552Z,3.80
2018-03-21T01:26:31.211Z,4.00
2018-03-21T01:28:57.848Z,3.73
2018-03-21T01:31:24.513Z,3.70
2018-03-21T01:33:51.180Z,3.50
2018-03-21T01:36:17.826Z,4.00
2018-03-21T01:38:44.489Z,3.83
2018-03-21T01:41:11.140Z,3.60
2018-03-21T01:43:37.785Z,3.80
2018-03-21T01:46:04.443Z,3.80
2018-03-21T01:48:31.084Z,3.53
2018-03-21T01:50:57.764Z,3.67
2018-03-21T01:53:24.405Z,3.87
2018-03-21T01:55:51.053Z,3.70
2018-03-21T01:58:17.716Z,3.40
2018-03-21T02:00:44.360Z,3.67
2018-03-21T02:03:11.020Z,3.97
2018-03-21T02:05:37.784Z,3.40
2018-03-21T02:08:04.439Z,3.67
2018-03-21T02:10:31.084Z,3.50
2018-03-21T02:12:57.762Z,3.97
2018-03-21T02:15:24.407Z,3.50
2018-03-21T02:17:51.048Z,3.50
2018-03-21T02:20:17.712Z,3.67
2018-03-21T02:22:44.348Z,3.63
2018-03-21T02:25:10.996Z,3.50
2018-03-21T02:27:37.667Z,3.70
2018-03-21T02:30:04.328Z,3.80
2018-03-21T02:32:30.973Z,3.37
2018-03-21T02:34:57.647Z,3.70
2018-03-21T02:37:24.290Z,3.50
2018-03-21T02:39:50.930Z,3.30
2018-03-21T02:42:17.591Z,3.50
2018-03-21T02:44:44.233Z,3.10
2018-03-21T02:47:10.900Z,3.67
2018-03-21T02:49:37.570Z,3.83
2018-03-21T02:52:04.223Z,3.30
2018-03-21T02:54:30.870Z,3.40
2018-03-21T02:56:57.595Z,3.50
2018-03-21T02:59:24.236Z,3.77
2018-03-21T03:01:50.872Z,3.63
2018-03-21T03:04:17.532Z,3.43
2018-03-21T03:06:44.185Z,4.03
2018-03-21T03:09:10.825Z,3.60
2018-03-21T03:11:37.494Z,3.50
2018-03-21T03:14:04.128Z,3.33
2018-03-21T03:16:30.760Z,3.50
2018-03-21T03:18:57.426Z,3.77
2018-03-21T03:21:24.072Z,3.70
2018-03-21T03:23:50.721Z,3.53
2018-03-21T03:26:17.392Z,3.30
2018-03-21T03:28:44.048Z,3.67
2018-03-21T03:31:10.689Z,3.27
2018-03-21T03:33:37.355Z,3.67
2018-03-21T03:36:04.024Z,3.33
2018-03-21T03:38:30.699Z,3.33
2018-03-21T03:40:57.376Z,3.53
2018-03-21T03:43:24.053Z,3.50
2018-03-21T03:45:50.732Z,3.23
2018-03-21T03:48:17.432Z,3.53
2018-03-21T03:50:44.114Z,3.60
2018-03-21T03:53:10.796Z,3.20
2018-03-21T03:55:37.500Z,3.80
2018-03-21T03:58:04.206Z,3.60
2018-03-21T04:00:30.892Z,3.37
2018-03-21T04:02:57.600Z,3.33
2018-03-21T04:05:24.282Z,3.07
2018-03-21T04:07:50.965Z,3.20
2018-03-21T04:10:17.671Z,3.10
2018-03-21T04:12:44.351Z,3.30
2018-03-21T04:15:11.033Z,3.63
2018-03-21T04:17:37.819Z,3.17
2018-03-21T04:20:04.510Z,3.50
2018-03-21T04:22:31.189Z,3.00
2018-03-21T04:24:57.894Z,3.30
2018-03-21T04:27:24.579Z,3.23
2018-03-21T04:29:51.269Z,3.13
2018-03-21T04:32:17.968Z,3.40
2018-03-21T04:34:44.643Z,2.73
2018-03-21T04:37:11.316Z,3.53
2018-03-21T04:39:38.021Z,3.17
2018-03-21T04:42:04.689Z,3.23
2018-03-21T04:44:31.374Z,3.40
2018-03-21T04:46:58.081Z,3.30
2018-03-21T04:49:24.789Z,3.20
2018-03-21T04:51:51.472Z,3.43
2018-03-21T04:54:18.169Z,3.27
2018-03-21T04:56:44.846Z,3.03
2018-03-21T04:59:11.517Z,3.40
2018-03-21T05:01:38.230Z,3.07
2018-03-21T05:04:04.909Z,3.20
2018-03-21T05:06:31.589Z,3.30
2018-03-21T05:08:58.280Z,3.17
2018-03-21T05:11:24.957Z,2.90
2018-03-21T05:13:51.634Z,3.10
2018-03-21T05:16:18.338Z,3.20
2018-03-21T05:18:45.031Z,3.10
2018-03-21T05:21:11.714Z,3.27
2018-03-21T05:23:38.400Z,3.33
2018-03-21T05:26:05.068Z,3.43
2018-03-21T05:28:31.745Z,2.90
2018-03-21T05:30:58.444Z,3.50
2018-03-21T05:33:25.118Z,3.50
2018-03-21T05:35:51.807Z,3.63
2018-03-21T05:38:18.523Z,3.13
2018-03-21T05:40:45.197Z,3.20
2018-03-21T05:43:11.874Z,3.27
2018-03-21T05:45:38.601Z,3.40
2018-03-21T05:48:05.293Z,3.03
2018-03-21T05:50:31.975Z,3.20
2018-03-21T05:52:58.667Z,3.00
2018-03-21T05:55:25.341Z,3.37
2018-03-21T05:57:52.004Z,2.93
2018-03-21T06:00:18.708Z,3.07
2018-03-21T06:02:45.377Z,2.97
2018-03-21T06:05:12.056Z,3.10
2018-03-21T06:07:38.785Z,3.17
2018-03-21T06:10:05.457Z,3.13
2018-03-21T06:12:32.133Z,3.50
2018-03-21T06:14:58.840Z,3.37
2018-03-21T06:17:25.514Z,3.07
2018-03-21T06:19:52.190Z,3.37
2018-03-21T06:22:18.920Z,3.37
2018-03-21T06:24:45.590Z,3.03
2018-03-21T06:27:12.260Z,3.00
2018-03-21T06:29:38.966Z,3.40
2018-03-21T06:32:05.641Z,2.80
2018-03-21T06:34:32.316Z,2.83
2018-03-21T06:36:59.013Z,3.10
2018-03-21T06:39:25.683Z,3.10
2018-03-21T06:41:52.360Z,2.70
2018-03-21T06:44:19.060Z,3.37
2018-03-21T06:46:45.746Z,3.00
2018-03-21T06:49:12.449Z,3.33
2018-03-21T06:51:39.140Z,3.10
2018-03-21T06:54:05.816Z,3.50
2018-03-21T06:56:32.501Z,2.97
2018-03-21T06:58:59.214Z,2.90
2018-03-21T07:01:25.894Z,3.13
2018-03-21T07:03:52.566Z,3.30
2018-03-21T07:06:19.267Z,3.17
2018-03-21T07:08:45.944Z,3.10
2018-03-21T07:11:12.647Z,3.23
2018-03-21T07:13:45.336Z,2.70
2018-03-21T07:16:17.872Z,3.27
2018-03-21T07:18:44.566Z,3.43
2018-03-21T07:21:11.258Z,3.03
2018-03-21T07:23:37.931Z,2.90
2018-03-21T07:26:04.638Z,3.20
2018-03-21T07:28:31.316Z,2.70
2018-03-21T07:30:58.002Z,3.30
2018-03-21T07:33:24.736Z,3.20
2018-03-21T07:35:51.405Z,2.70
2018-03-21T07:38:18.091Z,3.23
2018-03-21T07:40:44.787Z,2.60
2018-03-21T07:43:11.528Z,3.30
2018-03-21T07:45:38.264Z,3.03
2018-03-21T07:48:05.070Z,3.03
2018-03-21T07:50:31.768Z,2.53
2018-03-21T07:52:58.486Z,2.77
2018-03-21T07:55:25.305Z,2.70
2018-03-21T07:57:51.983Z,2.80
2018-03-21T08:00:18.694Z,3.10
2018-03-21T08:02:45.507Z,2.83
2018-03-21T08:05:12.189Z,2.90
2018-03-21T08:07:38.949Z,2.90
2018-03-21T08:10:05.720Z,3.07
2018-03-21T08:12:32.513Z,3.23
2018-03-21T08:14:59.230Z,3.07
2018-03-21T08:17:25.970Z,2.87
2018-03-21T08:19:52.756Z,3.10
2018-03-21T08:22:19.442Z,2.90
2018-03-21T08:24:46.208Z,3.30
2018-03-21T08:27:12.889Z,2.93
2018-03-21T08:29:39.596Z,2.57
2018-03-21T08:32:06.391Z,2.90
2018-03-21T08:34:33.046Z,3.07
2018-03-21T08:36:59.828Z,3.20
2018-03-21T08:39:26.608Z,3.10
2018-03-21T08:41:53.341Z,2.57
2018-03-21T08:44:20.022Z,2.80
2018-03-21T08:46:46.796Z,2.90
2018-03-21T08:49:13.534Z,2.90
2018-03-21T08:51:40.260Z,3.07
2018-03-21T08:54:07.024Z,2.50
2018-03-21T08:56:33.852Z,2.60
2018-03-21T08:59:00.562Z,2.90
2018-03-21T09:01:27.341Z,2.77
2018-03-21T09:03:54.139Z,2.77
2018-03-21T09:06:20.856Z,2.67
2018-03-21T09:08:47.589Z,2.87
2018-03-21T09:11:14.340Z,2.60
2018-03-21T09:13:41.086Z,3.00
2018-03-21T09:16:07.822Z,2.57
2018-03-21T09:18:34.500Z,2.87
2018-03-21T09:21:01.177Z,2.60
2018-03-21T09:23:27.881Z,2.80
2018-03-21T09:25:54.562Z,2.93
2018-03-21T09:28:21.241Z,2.77
2018-03-21T09:30:47.945Z,3.00
2018-03-21T09:33:14.625Z,2.47
2018-03-21T09:35:42.084Z,2.80
2018-03-21T09:38:08.795Z,3.07
2018-03-21T09:40:35.478Z,3.00
2018-03-21T09:43:02.164Z,3.00
2018-03-21T09:45:28.862Z,2.77
2018-03-21T09:47:55.556Z,2.77
2018-03-21T09:50:22.250Z,2.50
2018-03-21T09:52:48.968Z,2.50
2018-03-21T09:55:15.685Z,2.73
2018-03-21T09:57:42.377Z,2.97
2018-03-21T10:00:09.087Z,2.80
2018-03-21T10:02:35.856Z,2.53
2018-03-21T10:05:02.529Z,2.63
2018-03-21T10:07:29.240Z,2.63
2018-03-21T10:09:55.965Z,2.73
2018-03-21T10:12:22.618Z,3.00
2018-03-21T10:14:49.321Z,2.60
2018-03-21T10:17:16.247Z,2.60
2018-03-21T10:19:42.941Z,2.30
2018-03-21T10:22:09.657Z,2.63
2018-03-21T10:24:36.379Z,2.53
2018-03-21T10:27:03.058Z,2.83
2018-03-21T10:29:29.755Z,2.70
2018-03-21T10:31:56.442Z,2.70
2018-03-21T10:34:23.134Z,2.70
2018-03-21T10:36:49.833Z,2.67
2018-03-21T10:39:16.501Z,2.87
2018-03-21T10:41:43.181Z,2.63
2018-03-21T10:44:09.867Z,2.63
2018-03-21T10:46:36.608Z,2.23
2018-03-21T10:49:03.277Z,2.60
2018-03-21T10:51:29.980Z,2.00
2018-03-21T10:53:56.704Z,2.50
2018-03-21T10:56:23.446Z,2.40
2018-03-21T10:58:50.160Z,2.63
2018-03-21T11:01:22.520Z,2.50
2018-03-21T11:03:55.040Z,3.33
2018-03-21T11:06:21.718Z,4.20
2018-03-21T11:08:48.395Z,4.13
2018-03-21T11:11:15.092Z,2.87
2018-03-21T11:13:41.768Z,2.73
2018-03-21T11:16:08.452Z,2.93
2018-03-21T11:18:35.166Z,2.90
2018-03-21T11:21:01.853Z,3.80
2018-03-21T11:23:28.533Z,3.00
2018-03-21T11:25:55.232Z,3.23
2018-03-21T11:28:21.929Z,3.00
2018-03-21T11:30:48.592Z,3.20
2018-03-21T11:33:15.297Z,3.00
2018-03-21T11:35:41.968Z,2.70
2018-03-21T11:38:08.652Z,2.97
2018-03-21T11:40:35.380Z,2.70
2018-03-21T11:43:02.058Z,2.77
2018-03-21T11:45:28.749Z,2.93
2018-03-21T11:47:55.458Z,2.60
2018-03-21T11:50:22.139Z,2.70
2018-03-21T11:52:48.838Z,2.50
2018-03-21T11:55:16.084Z,2.77
2018-03-21T11:57:42.776Z,2.93
2018-03-21T12:00:09.467Z,3.07
2018-03-21T12:02:36.180Z,2.90
2018-03-21T12:05:02.887Z,3.27
2018-03-21T12:07:29.580Z,3.43
2018-03-21T12:09:56.286Z,3.87
2018-03-21T12:12:22.975Z,3.80
2018-03-21T12:14:49.654Z,3.53
2018-03-21T12:17:16.365Z,3.80
2018-03-21T12:19:43.045Z,3.80
2018-03-21T12:22:09.732Z,3.83
2018-03-21T12:24:36.568Z,3.67
2018-03-21T12:27:03.245Z,3.90
2018-03-21T12:29:29.925Z,3.30
2018-03-21T12:31:56.615Z,3.13
2018-03-21T12:34:23.299Z,3.00
2018-03-21T12:36:49.978Z,3.47
2018-03-21T12:39:16.675Z,3.50
2018-03-21T12:41:43.345Z,3.40
2018-03-21T12:44:10.033Z,3.30
2018-03-21T12:46:36.742Z,3.77
2018-03-21T12:49:03.428Z,3.07
2018-03-21T12:51:30.216Z,3.57
2018-03-21T12:53:56.940Z,3.30
2018-03-21T12:56:23.683Z,3.00
2018-03-21T12:58:50.370Z,3.43
2018-03-21T13:01:17.081Z,3.10
2018-03-21T13:03:43.766Z,3.57
2018-03-21T13:06:10.446Z,3.33
2018-03-21T13:08:37.150Z,3.40
2018-03-21T13:11:03.871Z,3.10
2018-03-21T13:13:30.553Z,3.10
2018-03-21T13:15:59.178Z,2.83
2018-03-21T13:18:25.857Z,3.10
2018-03-21T13:20:52.541Z,2.80
2018-03-21T13:23:19.251Z,3.07
2018-03-21T13:25:45.928Z,3.07
2018-03-21T13:28:12.610Z,3.27
2018-03-21T13:30:39.317Z,3.10
2018-03-21T13:33:05.998Z,3.13
2018-03-21T13:35:32.684Z,3.03
2018-03-21T13:37:59.385Z,2.97
2018-03-21T13:40:26.071Z,3.67
2018-03-21T13:42:52.745Z,3.23
2018-03-21T13:45:19.453Z,3.23
2018-03-21T13:47:46.128Z,3.10
2018-03-21T13:50:12.812Z,3.30
2018-03-21T13:52:39.508Z,2.97
2018-03-21T13:55:06.187Z,3.07
2018-03-21T13:57:32.881Z,3.17
2018-03-21T13:59:59.637Z,3.00
2018-03-21T14:02:26.312Z,3.23
2018-03-21T14:04:53.053Z,3.17
2018-03-21T14:07:19.761Z,3.13
2018-03-21T14:09:46.434Z,2.60
2018-03-21T14:12:13.125Z,3.50
2018-03-21T14:14:39.873Z,2.87
2018-03-21T14:17:06.575Z,2.97
2018-03-21T14:19:33.277Z,2.90
2018-03-21T14:21:59.988Z,3.00
2018-03-21T14:24:26.665Z,2.70
2018-03-21T14:26:53.351Z,2.90
2018-03-21T14:29:20.058Z,2.63
2018-03-21T14:31:46.745Z,2.67
2018-03-21T14:34:14.799Z,2.50
2018-03-21T14:36:41.564Z,2.70
2018-03-21T14:39:08.292Z,2.63
2018-03-21T14:41:34.966Z,2.97
2018-03-21T14:44:01.665Z,2.50
2018-03-21T14:46:28.338Z,2.60
2018-03-21T14:48:57.409Z,2.20
2018-03-21T14:51:24.133Z,2.60
2018-03-21T14:53:50.818Z,2.73
2018-03-21T14:56:17.497Z,2.80
2018-03-21T14:58:44.229Z,2.63
2018-03-21T15:01:10.906Z,2.40
2018-03-21T15:03:37.624Z,2.63
2018-03-21T15:06:04.389Z,2.33
2018-03-21T15:08:31.087Z,2.27
2018-03-21T15:10:57.784Z,2.83
2018-03-21T15:13:24.554Z,2.80
2018-03-21T15:15:51.226Z,2.80
2018-03-21T15:18:17.900Z,2.90
2018-03-21T15:20:44.618Z,2.77
2018-03-21T15:23:11.304Z,2.60
2018-03-21T15:25:41.458Z,2.50
2018-03-21T15:28:08.160Z,2.63
2018-03-21T15:30:34.858Z,2.40
2018-03-21T15:33:01.554Z,2.30
2018-03-21T15:35:28.335Z,2.37
2018-03-21T15:37:55.013Z,2.57
2018-03-21T15:40:21.713Z,2.83
2018-03-21T15:42:48.416Z,2.37
2018-03-21T15:45:15.088Z,2.37
2018-03-21T15:47:41.788Z,2.77
2018-03-21T15:50:08.500Z,2.63
2018-03-21T15:52:35.173Z,2.57
2018-03-21T15:55:01.856Z,2.40
2018-03-21T15:57:28.936Z,2.40
2018-03-21T15:59:55.669Z,2.57
2018-03-21T16:02:23.325Z,2.40
2018-03-21T16:04:53.680Z,2.40
2018-03-21T16:07:20.359Z,2.40
2018-03-21T16:09:47.048Z,2.40
2018-03-21T16:12:13.807Z,2.10
2018-03-21T16:14:40.503Z,2.43
2018-03-21T16:17:07.193Z,2.50
2018-03-21T16:19:33.903Z,2.60
2018-03-21T16:22:00.653Z,2.27
2018-03-21T16:24:27.325Z,2.30
2018-03-21T16:26:54.040Z,2.50
2018-03-21T16:29:20.727Z,2.27
2018-03-21T16:31:47.432Z,2.13
2018-03-21T16:34:14.123Z,2.30
2018-03-21T16:36:40.847Z,2.20
2018-03-21T16:39:07.531Z,2.33
2018-03-21T16:41:34.241Z,2.40
2018-03-21T16:44:00.926Z,2.47
2018-03-21T16:46:27.629Z,2.37
2018-03-21T16:48:54.337Z,2.30
2018-03-21T16:51:21.012Z,2.10
2018-03-21T16:53:47.687Z,2.47
2018-03-21T16:56:14.411Z,2.17
2018-03-21T16:58:41.099Z,2.00
2018-03-21T17:01:07.811Z,2.33
2018-03-21T17:03:34.614Z,2.33
2018-03-21T17:06:01.281Z,2.10
2018-03-21T17:08:28.020Z,2.37
2018-03-21T17:10:54.718Z,2.10
2018-03-21T17:13:21.387Z,2.10
2018-03-21T17:15:48.154Z,2.20
2018-03-21T17:18:14.865Z,2.00
2018-03-21T17:20:41.548Z,2.20
2018-03-21T17:23:08.275Z,2.30
2018-03-21T17:25:35.167Z,2.20
2018-03-21T17:28:01.860Z,2.33
2018-03-21T17:30:28.541Z,2.13
2018-03-21T17:32:55.239Z,2.43
2018-03-21T17:35:21.972Z,2.30
2018-03-21T17:37:48.657Z,2.10
2018-03-21T17:40:15.365Z,2.13
2018-03-21T17:42:42.036Z,2.20
2018-03-21T17:45:08.713Z,2.10
2018-03-21T17:47:35.400Z,2.13
2018-03-21T17:50:02.140Z,2.30
2018-03-21T17:52:28.831Z,2.20
2018-03-21T17:54:55.546Z,2.33
2018-03-21T17:57:22.242Z,2.30
2018-03-21T17:59:48.909Z,2.10
2018-03-21T18:02:15.608Z,2.03
2018-03-21T18:04:42.285Z,2.00
2018-03-21T18:07:08.971Z,1.90
2018-03-21T18:09:35.686Z,2.00
2018-03-21T18:12:02.401Z,2.20
2018-03-21T18:14:29.078Z,2.00
2018-03-21T18:16:55.789Z,2.10
2018-03-21T18:19:23.337Z,2.07
2018-03-21T18:21:50.011Z,2.40
2018-03-21T18:24:16.737Z,2.30
2018-03-21T18:26:43.442Z,3.03
2018-03-21T18:29:10.202Z,2.63
2018-03-21T18:31:36.888Z,2.37
2018-03-21T18:34:03.644Z,2.50
2018-03-21T18:36:30.316Z,2.67
2018-03-21T18:38:57.956Z,2.40
2018-03-21T18:41:24.648Z,2.60
2018-03-21T18:43:51.423Z,2.33
2018-03-21T18:46:18.136Z,2.63
2018-03-21T18:48:44.901Z,2.30
2018-03-21T18:51:11.693Z,2.80
2018-03-21T18:53:38.470Z,2.87
2018-03-21T18:56:05.155Z,2.40
2018-03-21T18:58:31.940Z,2.97
2018-03-21T19:00:58.736Z,2.50
2018-03-21T19:03:25.453Z,3.00
2018-03-21T19:05:52.163Z,2.90
2018-03-21T19:08:18.914Z,2.90
2018-03-21T19:10:45.656Z,2.93
2018-03-21T19:13:12.442Z,3.13
2018-03-21T19:15:39.301Z,2.97
2018-03-21T19:18:06.070Z,2.83
2018-03-21T19:20:32.710Z,2.97
2018-03-21T19:22:59.407Z,3.20
2018-03-21T19:25:26.085Z,2.60
2018-03-21T19:27:52.770Z,2.60
2018-03-21T19:30:19.473Z,3.10
2018-03-21T19:32:46.157Z,2.83
2018-03-21T19:35:12.820Z,3.20
2018-03-21T19:38:00.505Z,2.80
2018-03-21T19:40:27.196Z,3.27
2018-03-21T19:42:53.871Z,2.80
2018-03-21T19:45:20.600Z,3.13
2018-03-21T19:47:47.273Z,3.17
2018-03-21T19:50:13.953Z,2.77
2018-03-21T19:52:40.700Z,2.67
2018-03-21T19:55:07.368Z,2.70
2018-03-21T19:57:34.040Z,3.03
2018-03-21T20:00:00.771Z,3.00
2018-03-21T20:02:27.447Z,3.17
2018-03-21T20:04:54.225Z,2.80
2018-03-21T20:07:20.964Z,2.90
2018-03-21T20:09:47.727Z,3.00
2018-03-21T20:12:14.404Z,3.40
2018-03-21T20:14:41.099Z,3.07
2018-03-21T20:17:07.848Z,2.93
2018-03-21T20:19:34.520Z,3.40
2018-03-21T20:22:01.221Z,3.13
2018-03-21T20:24:27.895Z,3.07
2018-03-21T20:26:54.569Z,3.23
2018-03-21T20:29:21.272Z,3.07
2018-03-21T20:31:47.948Z,3.00
2018-03-21T20:34:14.618Z,3.10
2018-03-21T20:36:41.392Z,3.50
2018-03-21T20:39:08.048Z,3.53
2018-03-21T20:41:34.730Z,3.13
2018-03-21T20:44:01.445Z,3.40
2018-03-21T20:46:28.138Z,3.50
2018-03-21T20:48:54.820Z,3.90
2018-03-21T20:51:21.533Z,3.30
2018-03-21T20:53:48.209Z,3.60
2018-03-21T20:56:14.884Z,3.70
2018-03-21T20:58:41.583Z,3.90
2018-03-21T21:01:08.260Z,3.17
2018-03-21T21:03:34.953Z,3.37
2018-03-21T21:06:01.660Z,3.50
2018-03-21T21:08:28.327Z,3.60
2018-03-21T21:10:55.010Z,3.53
2018-03-21T21:13:21.708Z,4.07
2018-03-21T21:15:48.390Z,3.33
2018-03-21T21:18:15.085Z,3.47
2018-03-21T21:20:41.798Z,3.50
2018-03-21T21:23:08.477Z,3.30
2018-03-21T21:25:35.157Z,3.83
2018-03-21T21:28:01.867Z,3.50
2018-03-21T21:30:28.540Z,3.87
2018-03-21T21:32:55.213Z,3.70
2018-03-21T21:35:21.908Z,3.60
2018-03-21T21:37:48.581Z,3.17
2018-03-21T21:40:15.249Z,3.23
2018-03-21T21:42:41.954Z,3.33
2018-03-21T21:45:08.629Z,3.83
2018-03-21T21:47:35.309Z,3.50
2018-03-21T21:50:02.021Z,3.30
2018-03-21T21:52:28.720Z,3.27
2018-03-21T21:54:55.400Z,3.50
2018-03-21T21:57:22.120Z,3.57
2018-03-21T21:59:48.797Z,3.27
2018-03-21T22:02:15.472Z,3.33
2018-03-21T22:04:42.180Z,3.90
2018-03-21T22:07:08.941Z,3.17
2018-03-21T22:09:35.608Z,3.47
2018-03-21T22:12:02.676Z,3.50
2018-03-21T22:14:29.364Z,3.33
2018-03-21T22:16:56.032Z,3.20
2018-03-21T22:19:22.733Z,3.73
2018-03-21T22:21:49.411Z,3.37
2018-03-21T22:24:16.089Z,3.67
2018-03-21T22:26:42.788Z,3.63
2018-03-21T22:29:09.458Z,3.80
2018-03-21T22:31:36.195Z,3.40
2018-03-21T22:34:02.909Z,3.43
2018-03-21T22:36:29.575Z,3.50
2018-03-21T22:38:56.252Z,3.73
2018-03-21T22:41:22.955Z,3.53
2018-03-21T22:43:49.621Z,3.13
2018-03-21T22:46:16.292Z,3.23
2018-03-21T22:48:42.992Z,3.60
2018-03-21T22:51:09.660Z,3.30
2018-03-21T22:53:36.332Z,3.50
2018-03-21T22:56:03.040Z,3.40
2018-03-21T22:58:29.711Z,3.67
2018-03-21T23:00:56.380Z,3.40
2018-03-21T23:03:23.098Z,3.50
2018-03-21T23:05:49.772Z,2.87
2018-03-21T23:08:16.500Z,3.60
2018-03-21T23:10:43.213Z,3.20
2018-03-21T23:13:09.887Z,3.60
2018-03-21T23:15:36.561Z,3.37
2018-03-21T23:18:03.273Z,3.50
2018-03-21T23:20:29.944Z,3.73
2018-03-21T23:22:56.618Z,3.20
2018-03-21T23:25:23.324Z,3.57
2018-03-21T23:27:49.997Z,3.23
2018-03-21T23:30:16.669Z,3.37
2018-03-21T23:32:43.374Z,3.30
2018-03-21T23:35:10.082Z,3.37
2018-03-21T23:37:36.766Z,3.50
2018-03-21T23:40:03.500Z,3.63
2018-03-21T23:42:30.176Z,3.10
2018-03-21T23:44:56.884Z,3.20
2018-03-21T23:47:23.589Z,3.20
2018-03-21T23:49:50.274Z,3.40
2018-03-21T23:52:16.953Z,3.10
2018-03-21T23:54:43.764Z,3.50
2018-03-21T23:57:10.445Z,3.77
2018-03-21T23:59:37.124Z,3.53
